Airfield :
LOGIN :

Register | Disclaimer

   EN    FR    IT 

 










Legend :    VFR   Marginal VFR   IFR   Intensive IFR   Very Intensive IFR
Visi :
Ceiling :
>= 8 km
>= 3000ft
5 to 8 km
1000 to 3000 ft
1500m to 5 km
500 to 1000 ft
800 to 1500m
200 to 500 ft
< 800m
< 200 ft
Symbols :   Thunderstorms  Fog  Heavy snow  Heavy precipitations  Wind > 20 kt
SIGMETs :     Misc.  Thunderstorms  Icing  Turbulence  Mountain Waves  Volcanic Ashes







- Airport Elevation : 3 ft
- IATA code : LWR


EHLW - Leuuwarden Air Base

CURRENT METAR :
  • 200525Z AUTO 25004KT 9999 -RA BKN047 OVC055 12/10 Q1018 BLU

EXPIRED METARs :
  • 200455Z AUTO 22004KT 9999 FEW030 SCT048 BKN054 12/10 Q1018 BLU
  • 200425Z AUTO 24005KT 9999 FEW051 SCT076 OVC100 12/10 Q1017 BLU
  • 200355Z AUTO 23005KT 9999 OVC076 12/10 Q1018 BLU
  • 200325Z AUTO 24005KT 9999 OVC083 12/10 Q1018 BLU
  • 200255Z AUTO 24006KT 9999 OVC091 12/10 Q1018 BLU

TAF TAF EHLW
Valid from the 20 at 05:00 until the 20 at 17:00 UTC


200432Z 2005/2017 24005KT 9999 CAVOK
BECMG 2009/2012 26010KT SCT020 SCT050
No reported NOTAMs for that airfield.



MET'MAP, your aeronautical weather chart ! - Copyright ORBIFLY December 2007 - Disclaimer

ORBIFLY MET'MAP TEAM :

Programming & Development : Alexandra Zaïnal
Concept & Development : Baudouin d'Aumeries
Co-Development & Prog : Marc-Olivier Méhu
Technical & hardware support : Manuel Goepfert

Contact : metmap@orbifly.com




SOURCES & CREDITS :

   NOAA